sensor_id;sensor_type;location;lat;lon;timestamp;P1;durP1;ratioP1;P2;durP2;ratioP2
55082;SDS011;40978;52.850;6.506;2023-02-07T00:00:41;59.80;;;18.83;;
55082;SDS011;40978;52.850;6.506;2023-02-07T00:03:07;53.33;;;17.70;;
55082;SDS011;40978;52.850;6.506;2023-02-07T00:05:33;53.28;;;18.20;;
55082;SDS011;40978;52.850;6.506;2023-02-07T00:08:01;57.20;;;18.77;;
55082;SDS011;40978;52.850;6.506;2023-02-07T00:10:30;56.13;;;19.02;;
55082;SDS011;40978;52.850;6.506;2023-02-07T00:12:56;59.05;;;19.17;;
55082;SDS011;40978;52.850;6.506;2023-02-07T00:15:22;48.63;;;17.55;;
55082;SDS011;40978;52.850;6.506;2023-02-07T00:17:48;50.90;;;19.20;;
55082;SDS011;40978;52.850;6.506;2023-02-07T00:20:14;55.30;;;20.08;;
55082;SDS011;40978;52.850;6.506;2023-02-07T00:22:42;55.40;;;19.90;;
55082;SDS011;40978;52.850;6.506;2023-02-07T00:25:08;51.20;;;21.13;;
55082;SDS011;40978;52.850;6.506;2023-02-07T00:27:34;57.65;;;21.42;;
55082;SDS011;40978;52.850;6.506;2023-02-07T00:30:00;63.10;;;22.48;;
55082;SDS011;40978;52.850;6.506;2023-02-07T00:32:29;61.22;;;21.92;;
55082;SDS011;40978;52.850;6.506;2023-02-07T00:34:55;60.90;;;23.05;;
55082;SDS011;40978;52.850;6.506;2023-02-07T00:37:21;61.97;;;22.73;;
55082;SDS011;40978;52.850;6.506;2023-02-07T00:39:47;64.13;;;23.45;;
55082;SDS011;40978;52.850;6.506;2023-02-07T00:42:12;65.82;;;25.00;;
55082;SDS011;40978;52.850;6.506;2023-02-07T00:44:38;66.82;;;24.58;;
55082;SDS011;40978;52.850;6.506;2023-02-07T00:47:04;68.32;;;25.20;;
55082;SDS011;40978;52.850;6.506;2023-02-07T00:49:30;63.67;;;23.85;;
55082;SDS011;40978;52.850;6.506;2023-02-07T00:51:55;70.55;;;24.05;;
55082;SDS011;40978;52.850;6.506;2023-02-07T00:54:21;64.07;;;24.23;;
55082;SDS011;40978;52.850;6.506;2023-02-07T00:56:47;70.68;;;24.63;;
55082;SDS011;40978;52.850;6.506;2023-02-07T00:59:12;63.88;;;24.80;;
55082;SDS011;40978;52.850;6.506;2023-02-07T01:01:38;57.67;;;22.13;;
55082;SDS011;40978;52.850;6.506;2023-02-07T01:04:04;85.03;;;26.65;;
55082;SDS011;40978;52.850;6.506;2023-02-07T01:06:30;71.00;;;24.98;;
55082;SDS011;40978;52.850;6.506;2023-02-07T01:08:58;53.75;;;22.17;;
55082;SDS011;40978;52.850;6.506;2023-02-07T01:11:26;56.60;;;22.55;;
55082;SDS011;40978;52.850;6.506;2023-02-07T01:13:52;48.53;;;21.63;;
55082;SDS011;40978;52.850;6.506;2023-02-07T01:16:19;52.90;;;21.33;;
55082;SDS011;40978;52.850;6.506;2023-02-07T01:18:50;40.67;;;19.70;;
55082;SDS011;40978;52.850;6.506;2023-02-07T01:21:17;48.90;;;21.50;;
55082;SDS011;40978;52.850;6.506;2023-02-07T01:23:44;47.90;;;21.15;;
55082;SDS011;40978;52.850;6.506;2023-02-07T01:26:10;52.70;;;21.15;;
55082;SDS011;40978;52.850;6.506;2023-02-07T01:28:36;98.40;;;24.75;;
55082;SDS011;40978;52.850;6.506;2023-02-07T01:31:06;48.10;;;20.05;;
55082;SDS011;40978;52.850;6.506;2023-02-07T01:33:34;48.53;;;21.02;;
55082;SDS011;40978;52.850;6.506;2023-02-07T01:36:07;43.35;;;19.27;;
55082;SDS011;40978;52.850;6.506;2023-02-07T01:38:39;42.13;;;18.45;;
55082;SDS011;40978;52.850;6.506;2023-02-07T01:41:06;45.38;;;20.27;;
55082;SDS011;40978;52.850;6.506;2023-02-07T01:43:31;38.25;;;19.75;;
55082;SDS011;40978;52.850;6.506;2023-02-07T01:45:57;49.08;;;19.58;;
55082;SDS011;40978;52.850;6.506;2023-02-07T01:48:30;42.58;;;19.70;;
55082;SDS011;40978;52.850;6.506;2023-02-07T01:50:59;39.22;;;18.85;;
55082;SDS011;40978;52.850;6.506;2023-02-07T01:53:30;39.50;;;18.13;;
55082;SDS011;40978;52.850;6.506;2023-02-07T01:56:00;39.15;;;18.40;;
55082;SDS011;40978;52.850;6.506;2023-02-07T01:58:29;40.30;;;19.88;;
55082;SDS011;40978;52.850;6.506;2023-02-07T02:00:57;46.88;;;20.30;;
55082;SDS011;40978;52.850;6.506;2023-02-07T02:03:24;38.40;;;17.52;;
55082;SDS011;40978;52.850;6.506;2023-02-07T02:05:50;41.58;;;18.98;;
55082;SDS011;40978;52.850;6.506;2023-02-07T02:08:19;37.03;;;18.60;;
55082;SDS011;40978;52.850;6.506;2023-02-07T02:13:35;38.25;;;19.02;;
55082;SDS011;40978;52.850;6.506;2023-02-07T02:19:01;36.67;;;18.23;;
55082;SDS011;40978;52.850;6.506;2023-02-07T02:21:54;54.17;;;19.42;;
55082;SDS011;40978;52.850;6.506;2023-02-07T02:38:38;36.50;;;17.95;;
55082;SDS011;40978;52.850;6.506;2023-02-07T02:41:39;36.88;;;18.33;;
55082;SDS011;40978;52.850;6.506;2023-02-07T02:44:25;43.15;;;17.88;;
55082;SDS011;40978;52.850;6.506;2023-02-07T02:46:58;34.75;;;18.92;;
55082;SDS011;40978;52.850;6.506;2023-02-07T02:49:27;33.35;;;17.60;;
55082;SDS011;40978;52.850;6.506;2023-02-07T02:51:54;34.47;;;16.83;;
55082;SDS011;40978;52.850;6.506;2023-02-07T02:54:28;34.17;;;18.17;;
55082;SDS011;40978;52.850;6.506;2023-02-07T03:05:13;177.90;;;25.08;;
55082;SDS011;40978;52.850;6.506;2023-02-07T03:08:05;162.57;;;25.65;;
55082;SDS011;40978;52.850;6.506;2023-02-07T03:13:25;47.70;;;17.45;;
55082;SDS011;40978;52.850;6.506;2023-02-07T03:18:46;101.53;;;19.48;;
55082;SDS011;40978;52.850;6.506;2023-02-07T03:21:17;28.60;;;16.73;;
55082;SDS011;40978;52.850;6.506;2023-02-07T03:23:50;31.55;;;17.52;;
55082;SDS011;40978;52.850;6.506;2023-02-07T03:26:19;26.05;;;15.75;;
55082;SDS011;40978;52.850;6.506;2023-02-07T03:28:47;30.95;;;17.35;;
55082;SDS011;40978;52.850;6.506;2023-02-07T03:31:15;30.20;;;16.27;;
55082;SDS011;40978;52.850;6.506;2023-02-07T03:33:43;31.00;;;16.25;;
55082;SDS011;40978;52.850;6.506;2023-02-07T03:38:47;26.77;;;17.40;;
55082;SDS011;40978;52.850;6.506;2023-02-07T03:41:23;26.10;;;15.85;;
55082;SDS011;40978;52.850;6.506;2023-02-07T03:44:01;29.48;;;17.08;;
55082;SDS011;40978;52.850;6.506;2023-02-07T03:46:35;30.48;;;17.25;;
55082;SDS011;40978;52.850;6.506;2023-02-07T03:49:02;26.45;;;16.02;;
55082;SDS011;40978;52.850;6.506;2023-02-07T03:51:28;31.55;;;16.90;;
55082;SDS011;40978;52.850;6.506;2023-02-07T03:53:53;28.70;;;16.42;;
55082;SDS011;40978;52.850;6.506;2023-02-07T03:56:19;26.55;;;16.10;;
55082;SDS011;40978;52.850;6.506;2023-02-07T03:58:45;25.50;;;16.10;;
55082;SDS011;40978;52.850;6.506;2023-02-07T04:01:10;33.88;;;18.02;;
55082;SDS011;40978;52.850;6.506;2023-02-07T04:03:36;251.40;;;31.25;;
55082;SDS011;40978;52.850;6.506;2023-02-07T04:06:02;440.63;;;40.28;;
55082;SDS011;40978;52.850;6.506;2023-02-07T04:08:28;32.92;;;18.95;;
55082;SDS011;40978;52.850;6.506;2023-02-07T04:11:00;252.25;;;27.27;;
55082;SDS011;40978;52.850;6.506;2023-02-07T04:13:27;48.92;;;18.20;;
55082;SDS011;40978;52.850;6.506;2023-02-07T04:15:53;182.35;;;26.83;;
55082;SDS011;40978;52.850;6.506;2023-02-07T04:18:19;122.57;;;23.20;;
55082;SDS011;40978;52.850;6.506;2023-02-07T04:20:45;34.83;;;18.88;;
55082;SDS011;40978;52.850;6.506;2023-02-07T04:23:11;32.85;;;17.20;;
55082;SDS011;40978;52.850;6.506;2023-02-07T04:25:37;29.27;;;17.38;;
55082;SDS011;40978;52.850;6.506;2023-02-07T04:28:03;24.50;;;15.20;;
55082;SDS011;40978;52.850;6.506;2023-02-07T04:30:29;25.30;;;15.07;;
55082;SDS011;40978;52.850;6.506;2023-02-07T04:32:56;24.92;;;15.88;;
55082;SDS011;40978;52.850;6.506;2023-02-07T04:35:22;21.77;;;14.10;;
55082;SDS011;40978;52.850;6.506;2023-02-07T04:37:48;23.92;;;13.57;;
55082;SDS011;40978;52.850;6.506;2023-02-07T04:40:13;20.60;;;13.05;;
55082;SDS011;40978;52.850;6.506;2023-02-07T04:42:39;19.00;;;13.55;;
55082;SDS011;40978;52.850;6.506;2023-02-07T04:45:05;20.45;;;13.05;;
55082;SDS011;40978;52.850;6.506;2023-02-07T04:47:31;24.85;;;14.82;;
55082;SDS011;40978;52.850;6.506;2023-02-07T04:49:57;18.65;;;12.52;;
55082;SDS011;40978;52.850;6.506;2023-02-07T04:52:23;23.15;;;13.68;;
55082;SDS011;40978;52.850;6.506;2023-02-07T04:54:48;20.83;;;12.88;;
55082;SDS011;40978;52.850;6.506;2023-02-07T04:57:14;19.70;;;13.18;;
55082;SDS011;40978;52.850;6.506;2023-02-07T04:59:41;20.13;;;13.25;;
55082;SDS011;40978;52.850;6.506;2023-02-07T05:02:06;23.13;;;13.68;;
55082;SDS011;40978;52.850;6.506;2023-02-07T05:04:32;20.17;;;13.80;;
55082;SDS011;40978;52.850;6.506;2023-02-07T05:06:58;24.20;;;14.07;;
55082;SDS011;40978;52.850;6.506;2023-02-07T05:09:23;22.95;;;13.85;;
55082;SDS011;40978;52.850;6.506;2023-02-07T05:11:49;21.52;;;14.13;;
55082;SDS011;40978;52.850;6.506;2023-02-07T05:14:15;25.67;;;14.80;;
55082;SDS011;40978;52.850;6.506;2023-02-07T05:16:41;21.90;;;15.00;;
55082;SDS011;40978;52.850;6.506;2023-02-07T05:19:06;23.58;;;14.65;;
55082;SDS011;40978;52.850;6.506;2023-02-07T05:21:32;24.58;;;14.55;;
55082;SDS011;40978;52.850;6.506;2023-02-07T05:23:58;28.70;;;16.42;;
55082;SDS011;40978;52.850;6.506;2023-02-07T05:26:24;24.80;;;13.98;;
55082;SDS011;40978;52.850;6.506;2023-02-07T05:28:49;23.70;;;14.27;;
55082;SDS011;40978;52.850;6.506;2023-02-07T05:31:15;28.25;;;16.15;;
55082;SDS011;40978;52.850;6.506;2023-02-07T05:33:41;28.42;;;16.52;;
55082;SDS011;40978;52.850;6.506;2023-02-07T05:36:06;28.30;;;16.00;;
55082;SDS011;40978;52.850;6.506;2023-02-07T05:38:33;27.20;;;15.82;;
55082;SDS011;40978;52.850;6.506;2023-02-07T05:40:58;26.58;;;16.23;;
55082;SDS011;40978;52.850;6.506;2023-02-07T05:43:24;28.15;;;17.27;;
55082;SDS011;40978;52.850;6.506;2023-02-07T05:45:50;25.85;;;14.85;;
55082;SDS011;40978;52.850;6.506;2023-02-07T05:48:15;26.92;;;16.13;;
55082;SDS011;40978;52.850;6.506;2023-02-07T05:50:41;31.85;;;17.50;;
55082;SDS011;40978;52.850;6.506;2023-02-07T05:53:07;31.83;;;16.73;;
55082;SDS011;40978;52.850;6.506;2023-02-07T05:55:33;29.85;;;15.98;;
55082;SDS011;40978;52.850;6.506;2023-02-07T05:57:59;29.30;;;16.33;;
55082;SDS011;40978;52.850;6.506;2023-02-07T06:00:25;31.45;;;15.48;;
55082;SDS011;40978;52.850;6.506;2023-02-07T06:02:51;32.00;;;16.67;;
55082;SDS011;40978;52.850;6.506;2023-02-07T06:05:17;26.75;;;14.73;;
55082;SDS011;40978;52.850;6.506;2023-02-07T06:07:51;32.83;;;16.02;;
55082;SDS011;40978;52.850;6.506;2023-02-07T06:10:17;28.60;;;16.95;;
55082;SDS011;40978;52.850;6.506;2023-02-07T06:12:43;29.13;;;15.88;;
55082;SDS011;40978;52.850;6.506;2023-02-07T06:15:09;28.23;;;16.60;;
55082;SDS011;40978;52.850;6.506;2023-02-07T06:17:35;25.38;;;14.88;;
55082;SDS011;40978;52.850;6.506;2023-02-07T06:20:01;27.38;;;15.63;;
55082;SDS011;40978;52.850;6.506;2023-02-07T06:22:27;23.02;;;14.30;;
55082;SDS011;40978;52.850;6.506;2023-02-07T06:24:53;29.75;;;16.88;;
55082;SDS011;40978;52.850;6.506;2023-02-07T06:27:18;27.85;;;15.88;;
55082;SDS011;40978;52.850;6.506;2023-02-07T06:29:45;25.08;;;15.45;;
55082;SDS011;40978;52.850;6.506;2023-02-07T06:32:10;25.13;;;15.20;;
55082;SDS011;40978;52.850;6.506;2023-02-07T06:34:36;22.23;;;14.63;;
55082;SDS011;40978;52.850;6.506;2023-02-07T06:37:02;27.88;;;15.82;;
55082;SDS011;40978;52.850;6.506;2023-02-07T06:39:27;28.48;;;15.20;;
55082;SDS011;40978;52.850;6.506;2023-02-07T06:41:53;27.20;;;15.25;;
55082;SDS011;40978;52.850;6.506;2023-02-07T06:44:19;25.58;;;15.55;;
55082;SDS011;40978;52.850;6.506;2023-02-07T06:46:44;28.15;;;17.95;;
55082;SDS011;40978;52.850;6.506;2023-02-07T06:49:10;28.15;;;15.35;;
55082;SDS011;40978;52.850;6.506;2023-02-07T06:51:36;23.17;;;14.77;;
55082;SDS011;40978;52.850;6.506;2023-02-07T06:54:02;24.75;;;14.27;;
55082;SDS011;40978;52.850;6.506;2023-02-07T06:56:32;26.25;;;15.63;;
55082;SDS011;40978;52.850;6.506;2023-02-07T06:58:58;29.90;;;16.33;;
55082;SDS011;40978;52.850;6.506;2023-02-07T07:01:23;27.80;;;15.55;;
55082;SDS011;40978;52.850;6.506;2023-02-07T07:03:49;30.98;;;15.25;;
55082;SDS011;40978;52.850;6.506;2023-02-07T07:06:15;30.08;;;16.13;;
55082;SDS011;40978;52.850;6.506;2023-02-07T07:08:41;40.90;;;19.23;;
55082;SDS011;40978;52.850;6.506;2023-02-07T07:11:07;35.00;;;20.60;;
55082;SDS011;40978;52.850;6.506;2023-02-07T07:13:33;27.85;;;18.17;;
55082;SDS011;40978;52.850;6.506;2023-02-07T07:15:58;29.38;;;17.60;;
55082;SDS011;40978;52.850;6.506;2023-02-07T07:18:24;34.80;;;20.25;;
55082;SDS011;40978;52.850;6.506;2023-02-07T07:20:53;33.72;;;19.60;;
55082;SDS011;40978;52.850;6.506;2023-02-07T07:23:19;40.33;;;20.88;;
55082;SDS011;40978;52.850;6.506;2023-02-07T07:25:45;40.17;;;21.63;;
55082;SDS011;40978;52.850;6.506;2023-02-07T07:28:11;39.65;;;23.48;;
55082;SDS011;40978;52.850;6.506;2023-02-07T07:30:36;42.25;;;21.52;;
55082;SDS011;40978;52.850;6.506;2023-02-07T07:33:02;37.75;;;19.25;;
55082;SDS011;40978;52.850;6.506;2023-02-07T07:35:28;40.92;;;22.98;;
55082;SDS011;40978;52.850;6.506;2023-02-07T07:37:53;37.42;;;22.10;;
55082;SDS011;40978;52.850;6.506;2023-02-07T07:40:19;37.88;;;22.20;;
55082;SDS011;40978;52.850;6.506;2023-02-07T07:42:46;44.50;;;24.15;;
55082;SDS011;40978;52.850;6.506;2023-02-07T07:45:12;38.42;;;22.88;;
55082;SDS011;40978;52.850;6.506;2023-02-07T07:47:38;47.92;;;24.00;;
55082;SDS011;40978;52.850;6.506;2023-02-07T07:50:04;41.30;;;24.90;;
55082;SDS011;40978;52.850;6.506;2023-02-07T07:52:30;45.88;;;24.35;;
55082;SDS011;40978;52.850;6.506;2023-02-07T07:54:56;40.65;;;24.48;;
55082;SDS011;40978;52.850;6.506;2023-02-07T07:57:22;47.72;;;26.67;;
55082;SDS011;40978;52.850;6.506;2023-02-07T07:59:52;47.45;;;26.27;;
55082;SDS011;40978;52.850;6.506;2023-02-07T08:02:21;41.97;;;24.63;;
55082;SDS011;40978;52.850;6.506;2023-02-07T08:04:48;36.17;;;22.95;;
55082;SDS011;40978;52.850;6.506;2023-02-07T08:07:14;29.80;;;20.67;;
55082;SDS011;40978;52.850;6.506;2023-02-07T08:09:40;52.85;;;23.33;;
55082;SDS011;40978;52.850;6.506;2023-02-07T08:12:06;30.20;;;19.52;;
55082;SDS011;40978;52.850;6.506;2023-02-07T08:14:32;24.75;;;17.83;;
55082;SDS011;40978;52.850;6.506;2023-02-07T08:16:58;23.98;;;18.38;;
55082;SDS011;40978;52.850;6.506;2023-02-07T08:19:24;22.65;;;17.55;;
55082;SDS011;40978;52.850;6.506;2023-02-07T08:21:49;19.90;;;16.60;;
55082;SDS011;40978;52.850;6.506;2023-02-07T08:24:15;22.02;;;15.85;;
55082;SDS011;40978;52.850;6.506;2023-02-07T08:26:41;21.80;;;16.00;;
55082;SDS011;40978;52.850;6.506;2023-02-07T08:29:07;21.48;;;16.95;;
55082;SDS011;40978;52.850;6.506;2023-02-07T08:31:32;20.48;;;16.75;;
55082;SDS011;40978;52.850;6.506;2023-02-07T08:33:58;18.65;;;15.15;;
55082;SDS011;40978;52.850;6.506;2023-02-07T08:36:24;18.08;;;15.43;;
55082;SDS011;40978;52.850;6.506;2023-02-07T08:38:50;21.65;;;14.45;;
55082;SDS011;40978;52.850;6.506;2023-02-07T08:41:16;19.48;;;16.27;;
55082;SDS011;40978;52.850;6.506;2023-02-07T08:43:42;16.48;;;13.88;;
55082;SDS011;40978;52.850;6.506;2023-02-07T08:46:08;16.23;;;14.52;;
55082;SDS011;40978;52.850;6.506;2023-02-07T08:48:34;16.48;;;14.05;;
55082;SDS011;40978;52.850;6.506;2023-02-07T08:51:06;16.17;;;14.48;;
55082;SDS011;40978;52.850;6.506;2023-02-07T08:53:32;16.02;;;14.25;;
55082;SDS011;40978;52.850;6.506;2023-02-07T08:55:58;15.90;;;13.20;;
55082;SDS011;40978;52.850;6.506;2023-02-07T08:58:24;16.85;;;12.50;;
55082;SDS011;40978;52.850;6.506;2023-02-07T09:00:50;15.52;;;13.27;;
55082;SDS011;40978;52.850;6.506;2023-02-07T09:03:16;15.90;;;13.10;;
55082;SDS011;40978;52.850;6.506;2023-02-07T09:05:41;13.13;;;11.75;;
55082;SDS011;40978;52.850;6.506;2023-02-07T09:08:07;13.48;;;12.13;;
55082;SDS011;40978;52.850;6.506;2023-02-07T09:10:33;16.05;;;12.55;;
55082;SDS011;40978;52.850;6.506;2023-02-07T09:13:00;14.18;;;12.45;;
55082;SDS011;40978;52.850;6.506;2023-02-07T09:15:26;15.55;;;12.88;;
55082;SDS011;40978;52.850;6.506;2023-02-07T09:17:51;14.65;;;12.98;;
55082;SDS011;40978;52.850;6.506;2023-02-07T09:20:17;15.23;;;11.95;;
55082;SDS011;40978;52.850;6.506;2023-02-07T09:22:43;15.32;;;12.60;;
55082;SDS011;40978;52.850;6.506;2023-02-07T09:25:27;12.68;;;11.38;;
55082;SDS011;40978;52.850;6.506;2023-02-07T09:27:53;15.57;;;12.65;;
55082;SDS011;40978;52.850;6.506;2023-02-07T09:30:20;14.13;;;11.80;;
55082;SDS011;40978;52.850;6.506;2023-02-07T09:32:45;13.50;;;12.07;;
55082;SDS011;40978;52.850;6.506;2023-02-07T09:35:11;14.80;;;12.40;;
55082;SDS011;40978;52.850;6.506;2023-02-07T09:37:37;13.25;;;11.85;;
55082;SDS011;40978;52.850;6.506;2023-02-07T09:40:03;13.13;;;11.38;;
55082;SDS011;40978;52.850;6.506;2023-02-07T09:42:30;15.05;;;12.77;;
55082;SDS011;40978;52.850;6.506;2023-02-07T09:47:38;13.30;;;11.77;;
55082;SDS011;40978;52.850;6.506;2023-02-07T09:53:03;13.32;;;11.00;;
55082;SDS011;40978;52.850;6.506;2023-02-07T09:55:41;12.88;;;10.52;;
55082;SDS011;40978;52.850;6.506;2023-02-07T09:58:13;11.40;;;10.30;;
55082;SDS011;40978;52.850;6.506;2023-02-07T10:00:43;12.15;;;10.50;;
55082;SDS011;40978;52.850;6.506;2023-02-07T10:03:18;11.23;;;10.13;;
55082;SDS011;40978;52.850;6.506;2023-02-07T10:06:10;11.90;;;10.70;;
55082;SDS011;40978;52.850;6.506;2023-02-07T10:08:38;11.70;;;10.50;;
55082;SDS011;40978;52.850;6.506;2023-02-07T10:11:13;12.02;;;10.73;;
55082;SDS011;40978;52.850;6.506;2023-02-07T10:16:53;11.95;;;10.63;;
55082;SDS011;40978;52.850;6.506;2023-02-07T10:22:22;12.93;;;10.52;;
55082;SDS011;40978;52.850;6.506;2023-02-07T10:27:36;11.30;;;10.15;;
55082;SDS011;40978;52.850;6.506;2023-02-07T10:30:17;12.45;;;10.02;;
55082;SDS011;40978;52.850;6.506;2023-02-07T10:32:48;13.48;;;11.88;;
55082;SDS011;40978;52.850;6.506;2023-02-07T10:35:20;13.57;;;11.63;;
55082;SDS011;40978;52.850;6.506;2023-02-07T10:37:49;15.15;;;12.45;;
55082;SDS011;40978;52.850;6.506;2023-02-07T10:40:23;13.05;;;11.30;;
55082;SDS011;40978;52.850;6.506;2023-02-07T10:43:31;13.23;;;10.57;;
55082;SDS011;40978;52.850;6.506;2023-02-07T10:45:59;17.95;;;12.18;;
55082;SDS011;40978;52.850;6.506;2023-02-07T10:48:37;13.13;;;11.00;;
55082;SDS011;40978;52.850;6.506;2023-02-07T10:51:04;14.93;;;11.27;;
55082;SDS011;40978;52.850;6.506;2023-02-07T10:53:46;12.85;;;11.35;;
55082;SDS011;40978;52.850;6.506;2023-02-07T10:56:16;13.77;;;12.00;;
55082;SDS011;40978;52.850;6.506;2023-02-07T10:58:43;14.77;;;12.60;;
55082;SDS011;40978;52.850;6.506;2023-02-07T11:01:20;19.10;;;15.32;;
55082;SDS011;40978;52.850;6.506;2023-02-07T11:03:48;14.00;;;12.45;;
55082;SDS011;40978;52.850;6.506;2023-02-07T11:06:15;13.45;;;11.15;;
55082;SDS011;40978;52.850;6.506;2023-02-07T11:11:49;13.25;;;10.90;;
55082;SDS011;40978;52.850;6.506;2023-02-07T11:14:25;13.07;;;10.75;;
55082;SDS011;40978;52.850;6.506;2023-02-07T11:16:56;13.68;;;10.73;;
55082;SDS011;40978;52.850;6.506;2023-02-07T11:19:29;13.02;;;10.85;;
55082;SDS011;40978;52.850;6.506;2023-02-07T11:22:41;14.98;;;10.35;;
55082;SDS011;40978;52.850;6.506;2023-02-07T11:24:43;12.88;;;11.07;;
55082;SDS011;40978;52.850;6.506;2023-02-07T11:27:13;14.45;;;10.18;;
55082;SDS011;40978;52.850;6.506;2023-02-07T11:29:47;12.02;;;10.02;;
55082;SDS011;40978;52.850;6.506;2023-02-07T11:32:25;12.77;;;10.02;;
55082;SDS011;40978;52.850;6.506;2023-02-07T11:34:55;15.07;;;10.50;;
55082;SDS011;40978;52.850;6.506;2023-02-07T11:37:29;12.68;;;10.88;;
55082;SDS011;40978;52.850;6.506;2023-02-07T11:42:56;15.23;;;11.57;;
55082;SDS011;40978;52.850;6.506;2023-02-07T11:45:25;14.68;;;10.73;;
55082;SDS011;40978;52.850;6.506;2023-02-07T11:47:52;14.23;;;10.35;;
55082;SDS011;40978;52.850;6.506;2023-02-07T11:50:22;15.40;;;11.35;;
55082;SDS011;40978;52.850;6.506;2023-02-07T11:52:54;14.88;;;10.38;;
55082;SDS011;40978;52.850;6.506;2023-02-07T11:55:29;11.85;;;10.45;;
55082;SDS011;40978;52.850;6.506;2023-02-07T11:57:56;16.63;;;11.48;;
55082;SDS011;40978;52.850;6.506;2023-02-07T12:00:26;14.20;;;11.18;;
55082;SDS011;40978;52.850;6.506;2023-02-07T12:02:58;14.00;;;11.13;;
55082;SDS011;40978;52.850;6.506;2023-02-07T12:05:34;16.35;;;11.25;;
55082;SDS011;40978;52.850;6.506;2023-02-07T12:11:14;12.82;;;9.68;;
55082;SDS011;40978;52.850;6.506;2023-02-07T12:13:58;15.05;;;10.25;;
55082;SDS011;40978;52.850;6.506;2023-02-07T12:16:50;15.70;;;10.40;;
55082;SDS011;40978;52.850;6.506;2023-02-07T12:19:20;15.63;;;10.38;;
55082;SDS011;40978;52.850;6.506;2023-02-07T12:22:00;13.45;;;9.77;;
55082;SDS011;40978;52.850;6.506;2023-02-07T12:25:00;14.77;;;9.50;;
55082;SDS011;40978;52.850;6.506;2023-02-07T12:27:35;13.52;;;10.40;;
55082;SDS011;40978;52.850;6.506;2023-02-07T12:38:44;14.90;;;11.43;;
55082;SDS011;40978;52.850;6.506;2023-02-07T12:41:20;17.15;;;10.65;;
55082;SDS011;40978;52.850;6.506;2023-02-07T12:44:03;16.85;;;9.95;;
55082;SDS011;40978;52.850;6.506;2023-02-07T13:09:11;15.43;;;10.75;;
55082;SDS011;40978;52.850;6.506;2023-02-07T13:11:54;15.15;;;10.57;;
55082;SDS011;40978;52.850;6.506;2023-02-07T13:19:52;17.35;;;11.18;;
55082;SDS011;40978;52.850;6.506;2023-02-07T13:22:35;14.80;;;10.05;;
55082;SDS011;40978;52.850;6.506;2023-02-07T13:25:12;14.98;;;10.68;;
55082;SDS011;40978;52.850;6.506;2023-02-07T13:27:52;15.63;;;9.73;;
55082;SDS011;40978;52.850;6.506;2023-02-07T13:30:21;18.65;;;10.40;;
55082;SDS011;40978;52.850;6.506;2023-02-07T13:32:48;16.60;;;10.23;;
55082;SDS011;40978;52.850;6.506;2023-02-07T13:35:25;11.65;;;9.30;;
55082;SDS011;40978;52.850;6.506;2023-02-07T13:43:38;13.77;;;9.75;;
55082;SDS011;40978;52.850;6.506;2023-02-07T13:54:21;15.50;;;9.73;;
55082;SDS011;40978;52.850;6.506;2023-02-07T13:57:22;13.70;;;9.95;;
55082;SDS011;40978;52.850;6.506;2023-02-07T14:00:26;14.88;;;9.80;;
55082;SDS011;40978;52.850;6.506;2023-02-07T14:02:58;14.27;;;10.13;;
55082;SDS011;40978;52.850;6.506;2023-02-07T14:07:54;13.30;;;9.52;;
55082;SDS011;40978;52.850;6.506;2023-02-07T14:13:20;12.35;;;9.52;;
55082;SDS011;40978;52.850;6.506;2023-02-07T14:15:59;11.65;;;9.13;;
55082;SDS011;40978;52.850;6.506;2023-02-07T14:31:49;12.77;;;9.88;;
55082;SDS011;40978;52.850;6.506;2023-02-07T14:34:20;14.32;;;10.15;;
55082;SDS011;40978;52.850;6.506;2023-02-07T14:36:47;14.38;;;9.82;;
55082;SDS011;40978;52.850;6.506;2023-02-07T14:41:42;12.07;;;8.98;;
55082;SDS011;40978;52.850;6.506;2023-02-07T14:44:21;16.92;;;10.30;;
55082;SDS011;40978;52.850;6.506;2023-02-07T14:46:54;11.65;;;8.85;;
55082;SDS011;40978;52.850;6.506;2023-02-07T14:49:45;12.38;;;9.27;;
55082;SDS011;40978;52.850;6.506;2023-02-07T14:52:21;14.02;;;8.88;;
55082;SDS011;40978;52.850;6.506;2023-02-07T15:03:11;13.02;;;9.60;;
55082;SDS011;40978;52.850;6.506;2023-02-07T15:05:46;14.27;;;9.55;;
55082;SDS011;40978;52.850;6.506;2023-02-07T15:08:18;15.70;;;9.65;;
55082;SDS011;40978;52.850;6.506;2023-02-07T15:13:24;15.18;;;9.25;;
55082;SDS011;40978;52.850;6.506;2023-02-07T15:19:01;14.65;;;9.60;;
55082;SDS011;40978;52.850;6.506;2023-02-07T15:26:37;18.45;;;10.63;;
55082;SDS011;40978;52.850;6.506;2023-02-07T15:29:05;14.40;;;10.43;;
55082;SDS011;40978;52.850;6.506;2023-02-07T15:31:41;14.93;;;10.60;;
55082;SDS011;40978;52.850;6.506;2023-02-07T15:34:25;16.85;;;11.27;;
55082;SDS011;40978;52.850;6.506;2023-02-07T15:36:56;14.70;;;10.27;;
55082;SDS011;40978;52.850;6.506;2023-02-07T15:39:39;16.50;;;11.27;;
55082;SDS011;40978;52.850;6.506;2023-02-07T15:42:05;13.05;;;10.38;;
55082;SDS011;40978;52.850;6.506;2023-02-07T15:44:44;15.30;;;10.98;;
55082;SDS011;40978;52.850;6.506;2023-02-07T15:47:54;17.25;;;11.27;;
55082;SDS011;40978;52.850;6.506;2023-02-07T15:50:19;16.50;;;10.82;;
55082;SDS011;40978;52.850;6.506;2023-02-07T15:52:49;13.00;;;10.40;;
55082;SDS011;40978;52.850;6.506;2023-02-07T15:55:41;15.32;;;10.23;;
55082;SDS011;40978;52.850;6.506;2023-02-07T15:58:16;15.60;;;10.55;;
55082;SDS011;40978;52.850;6.506;2023-02-07T16:00:57;14.70;;;10.53;;
55082;SDS011;40978;52.850;6.506;2023-02-07T16:03:28;14.70;;;10.85;;
55082;SDS011;40978;52.850;6.506;2023-02-07T16:08:45;14.40;;;10.52;;
55082;SDS011;40978;52.850;6.506;2023-02-07T16:11:36;14.43;;;10.80;;
55082;SDS011;40978;52.850;6.506;2023-02-07T16:16:50;18.75;;;10.75;;
55082;SDS011;40978;52.850;6.506;2023-02-07T16:19:22;15.90;;;10.43;;
55082;SDS011;40978;52.850;6.506;2023-02-07T16:24:27;14.85;;;10.77;;
55082;SDS011;40978;52.850;6.506;2023-02-07T16:26:53;14.68;;;9.95;;
55082;SDS011;40978;52.850;6.506;2023-02-07T16:29:24;17.75;;;10.77;;
55082;SDS011;40978;52.850;6.506;2023-02-07T16:31:51;16.02;;;10.57;;
55082;SDS011;40978;52.850;6.506;2023-02-07T16:34:20;16.25;;;10.32;;
55082;SDS011;40978;52.850;6.506;2023-02-07T16:36:49;16.52;;;10.48;;
55082;SDS011;40978;52.850;6.506;2023-02-07T16:39:17;17.63;;;10.55;;
55082;SDS011;40978;52.850;6.506;2023-02-07T16:41:43;14.93;;;10.30;;
55082;SDS011;40978;52.850;6.506;2023-02-07T16:44:16;19.40;;;10.77;;
55082;SDS011;40978;52.850;6.506;2023-02-07T16:46:47;14.20;;;10.07;;
55082;SDS011;40978;52.850;6.506;2023-02-07T16:49:16;14.98;;;10.88;;
55082;SDS011;40978;52.850;6.506;2023-02-07T16:51:47;15.95;;;10.43;;
55082;SDS011;40978;52.850;6.506;2023-02-07T16:54:13;13.10;;;10.10;;
55082;SDS011;40978;52.850;6.506;2023-02-07T16:56:39;17.40;;;11.52;;
55082;SDS011;40978;52.850;6.506;2023-02-07T16:59:08;13.35;;;10.15;;
55082;SDS011;40978;52.850;6.506;2023-02-07T17:01:42;21.02;;;12.77;;
55082;SDS011;40978;52.850;6.506;2023-02-07T17:04:09;17.85;;;10.85;;
55082;SDS011;40978;52.850;6.506;2023-02-07T17:06:36;17.70;;;12.02;;
55082;SDS011;40978;52.850;6.506;2023-02-07T17:09:04;16.45;;;12.00;;
55082;SDS011;40978;52.850;6.506;2023-02-07T17:11:38;16.00;;;12.68;;
55082;SDS011;40978;52.850;6.506;2023-02-07T17:14:04;18.83;;;12.20;;